Time;durP1;ratioP1;P1;durP2;ratioP2;P2;SDS_P1;SDS_P2;PMS_P1;PMS_P2;Temp;Humidity;BMP_temperature;BMP_pressure;BME280_temperature;BME280_humidity;BME280_pressure;Samples;Min_cycle;Max_cycle;Signal;HPM_P1;HPM_P2
2022/09/28 00:01:55;;;;;;;1.70;1.13;;;14.10;67.40;;;;;;5001809;28;20224;-47
2022/09/28 00:04:21;;;;;;;5.37;1.30;;;14.20;67.50;;;;;;4997201;28;20663;-46
2022/09/28 00:06:47;;;;;;;1.20;0.90;;;14.30;67.20;;;;;;4998472;28;20228;-46
2022/09/28 00:09:14;;;;;;;3.70;1.20;;;14.20;67.10;;;;;;5006398;28;20570;-47
2022/09/28 00:11:42;;;;;;;2.30;1.07;;;14.10;67.40;;;;;;4999288;28;20444;-46
2022/09/28 00:14:10;;;;;;;2.50;1.37;;;13.90;68.10;;;;;;5004205;28;20553;-46
2022/09/28 00:16:39;;;;;;;1.10;1.00;;;13.80;68.80;;;;;;5000502;28;20532;-48
2022/09/28 00:19:05;;;;;;;1.13;1.13;;;13.70;70.10;;;;;;5000798;28;20445;-46
2022/09/28 00:21:35;;;;;;;1.10;1.00;;;13.80;69.90;;;;;;5001907;28;20554;-49
2022/09/28 00:24:11;;;;;;;1.47;1.37;;;13.80;69.50;;;;;;5000874;28;20980;-46
2022/09/28 00:26:39;;;;;;;1.30;1.20;;;13.80;70.00;;;;;;5008591;28;20496;-46
2022/09/28 00:29:07;;;;;;;1.97;1.40;;;13.80;69.80;;;;;;5009305;28;22121;-46
2022/09/28 00:31:34;;;;;;;1.23;1.13;;;14.00;70.00;;;;;;5003337;28;20924;-46
2022/09/28 00:34:00;;;;;;;1.00;1.00;;;13.90;70.40;;;;;;5007438;28;20460;-47
2022/09/28 00:36:28;;;;;;;1.47;1.30;;;13.80;70.60;;;;;;5005995;28;20544;-47
2022/09/28 00:38:57;;;;;;;1.20;1.10;;;13.70;71.20;;;;;;5004477;28;20460;-46
2022/09/28 00:41:25;;;;;;;1.77;1.30;;;13.60;71.40;;;;;;5003824;28;20493;-47
2022/09/28 00:43:51;;;;;;;1.07;1.00;;;13.70;71.50;;;;;;4998449;28;20979;-46
2022/09/28 00:46:32;;;;;;;2.27;1.10;;;13.70;71.70;;;;;;4998219;28;20525;-46
2022/09/28 00:49:03;;;;;;;1.60;1.20;;;13.80;71.40;;;;;;5000506;28;20440;-46
2022/09/28 00:51:30;;;;;;;1.87;1.40;;;13.80;70.60;;;;;;5006543;28;20442;-47
2022/09/28 00:53:56;;;;;;;2.67;1.60;;;13.70;71.20;;;;;;4998515;28;20452;-48
2022/09/28 00:56:25;;;;;;;1.97;1.40;;;13.60;71.70;;;;;;5003815;28;20578;-46
2022/09/28 00:58:53;;;;;;;1.37;1.27;;;13.70;72.50;;;;;;4999777;28;20523;-47
2022/09/28 01:01:19;;;;;;;1.27;1.17;;;13.70;71.90;;;;;;4994492;28;20504;-46
2022/09/28 01:03:47;;;;;;;1.57;1.40;;;13.70;72.00;;;;;;4997988;28;20800;-46
2022/09/28 01:06:21;;;;;;;3.37;1.53;;;13.70;71.80;;;;;;4995808;28;20190;-46
2022/09/28 01:08:50;;;;;;;1.50;1.40;;;13.70;72.20;;;;;;5000218;28;20441;-46
2022/09/28 01:11:17;;;;;;;2.63;1.57;;;13.70;72.00;;;;;;5004663;28;20871;-50
2022/09/28 01:13:44;;;;;;;2.83;1.20;;;13.80;72.20;;;;;;4999811;28;20809;-50
2022/09/28 01:16:12;;;;;;;1.30;1.17;;;13.90;71.80;;;;;;5000164;28;20553;-47
2022/09/28 01:19:15;;;;;;;2.40;1.10;;;14.00;71.30;;;;;;5004041;28;20519;-50
2022/09/28 01:21:58;;;;;;;1.60;0.90;;;14.00;71.40;;;;;;5006848;28;20492;-50
2022/09/28 01:24:30;;;;;;;1.80;1.13;;;14.10;71.00;;;;;;5007076;28;20843;-48
2022/09/28 01:27:05;;;;;;;1.37;1.07;;;14.10;71.10;;;;;;5000772;28;20444;-50
2022/09/28 01:29:49;;;;;;;2.23;1.10;;;14.20;70.80;;;;;;5004474;28;20463;-50
2022/09/28 01:32:24;;;;;;;1.07;0.90;;;14.00;71.00;;;;;;4999228;28;20990;-46
2022/09/28 01:35:18;;;;;;;1.97;1.30;;;14.10;71.10;;;;;;5003754;28;20444;-50
2022/09/28 01:38:05;;;;;;;1.77;1.20;;;14.20;70.90;;;;;;5005682;28;20459;-49
2022/09/28 01:40:31;;;;;;;1.33;1.20;;;14.30;70.90;;;;;;5009606;28;20448;-49
2022/09/28 01:43:25;;;;;;;1.63;1.13;;;14.40;70.30;;;;;;5003098;28;20443;-51
2022/09/28 01:45:57;;;;;;;1.20;1.10;;;14.60;70.10;;;;;;4999418;28;20854;-48
2022/09/28 01:48:41;;;;;;;1.17;1.07;;;14.60;69.60;;;;;;5003355;28;20464;-50
2022/09/28 01:51:14;;;;;;;2.77;1.23;;;14.40;69.70;;;;;;5004941;28;20542;-47
2022/09/28 01:53:47;;;;;;;2.00;1.20;;;14.40;70.20;;;;;;5011408;28;20451;-49
2022/09/28 01:56:28;;;;;;;1.63;1.10;;;14.20;70.70;;;;;;5009395;28;20806;-51
2022/09/28 01:59:02;;;;;;;2.10;1.30;;;14.20;71.00;;;;;;5010266;28;20444;-47
2022/09/28 02:01:32;;;;;;;1.53;1.27;;;14.30;71.10;;;;;;5010619;28;20526;-49
2022/09/28 02:04:17;;;;;;;1.27;1.10;;;14.30;70.80;;;;;;5010487;28;20453;-47
2022/09/28 02:06:47;;;;;;;2.63;1.30;;;14.50;70.70;;;;;;5005571;28;20455;-50
2022/09/28 02:09:24;;;;;;;3.47;1.27;;;14.20;71.20;;;;;;5002395;28;20441;-48
2022/09/28 02:12:02;;;;;;;4.10;1.30;;;14.30;72.30;;;;;;5002247;28;20448;-46
2022/09/28 02:14:28;;;;;;;3.83;1.30;;;14.30;71.50;;;;;;5005573;28;20441;-48
2022/09/28 02:16:55;;;;;;;3.43;1.50;;;14.20;71.50;;;;;;5000302;28;20461;-46
2022/09/28 02:19:25;;;;;;;1.80;1.10;;;14.30;71.50;;;;;;4998120;28;20453;-49
2022/09/28 02:22:00;;;;;;;2.13;1.20;;;14.20;71.40;;;;;;4997352;28;20492;-48
2022/09/28 02:24:57;;;;;;;2.87;0.90;;;14.20;71.80;;;;;;5001522;28;20563;-46
2022/09/28 02:27:49;;;;;;;1.87;0.90;;;14.30;72.00;;;;;;4999552;28;20513;-46
2022/09/28 02:30:16;;;;;;;2.87;1.30;;;14.50;71.60;;;;;;5001583;28;20449;-50
2022/09/28 02:32:46;;;;;;;1.87;0.80;;;14.60;70.80;;;;;;4998530;28;20445;-46
2022/09/28 02:35:14;;;;;;;1.90;1.10;;;14.60;70.50;;;;;;5002885;28;20520;-48
2022/09/28 02:37:40;;;;;;;5.33;1.20;;;14.50;71.20;;;;;;5001909;28;20472;-50
2022/09/28 02:40:16;;;;;;;2.83;1.70;;;14.60;70.80;;;;;;5007570;28;20535;-46
2022/09/28 02:42:53;;;;;;;3.30;1.10;;;14.50;70.90;;;;;;5002256;28;20494;-50
2022/09/28 02:45:35;;;;;;;2.80;1.00;;;14.40;70.80;;;;;;5010469;28;21505;-46
2022/09/28 02:48:13;;;;;;;2.83;1.30;;;14.30;71.20;;;;;;5007678;28;20449;-47
2022/09/28 02:51:08;;;;;;;2.37;1.40;;;14.30;71.40;;;;;;5001189;28;20941;-49
2022/09/28 02:54:08;;;;;;;2.80;1.00;;;14.30;71.90;;;;;;5002852;28;20515;-49
2022/09/28 02:56:59;;;;;;;2.10;1.10;;;14.40;71.60;;;;;;5001278;28;20467;-48
2022/09/28 02:59:42;;;;;;;3.80;1.20;;;14.30;72.00;;;;;;5007477;28;20444;-46
2022/09/28 03:02:34;;;;;;;5.30;1.40;;;14.30;72.50;;;;;;5002970;28;20488;-47
2022/09/28 03:05:02;;;;;;;1.10;0.80;;;14.30;72.20;;;;;;5002944;28;20449;-48
2022/09/28 03:07:35;;;;;;;3.20;1.33;;;14.60;71.70;;;;;;5001610;28;20865;-48
2022/09/28 03:10:24;;;;;;;9.80;1.57;;;14.70;71.00;;;;;;4998720;28;20837;-46
2022/09/28 03:12:52;;;;;;;2.10;1.00;;;14.60;71.00;;;;;;5002578;28;21129;-50
2022/09/28 03:15:30;;;;;;;2.50;1.53;;;14.60;71.20;;;;;;4999919;28;20868;-50
2022/09/28 03:17:56;;;;;;;4.60;1.17;;;14.60;71.30;;;;;;5001461;28;20448;-46
2022/09/28 03:20:22;;;;;;;2.23;1.40;;;14.70;71.30;;;;;;5002645;28;20441;-50
2022/09/28 03:22:48;;;;;;;3.43;1.50;;;14.70;71.40;;;;;;5002356;28;20599;-47
2022/09/28 03:25:14;;;;;;;2.20;1.17;;;14.70;71.10;;;;;;5000812;28;20441;-46
2022/09/28 03:27:40;;;;;;;1.37;1.10;;;14.60;71.10;;;;;;5002705;28;20261;-50
2022/09/28 03:30:06;;;;;;;2.83;1.90;;;14.60;71.30;;;;;;5002171;28;20926;-50
2022/09/28 03:32:32;;;;;;;3.20;1.87;;;14.70;71.50;;;;;;5004506;28;20500;-46
2022/09/28 03:34:57;;;;;;;3.80;1.73;;;14.70;71.20;;;;;;5000322;28;20437;-47
2022/09/28 03:37:23;;;;;;;1.30;1.00;;;14.60;71.30;;;;;;5006085;28;20256;-46
2022/09/28 03:39:49;;;;;;;3.20;1.33;;;14.60;71.30;;;;;;4998919;28;20198;-50
2022/09/28 03:42:14;;;;;;;4.33;1.40;;;14.60;71.80;;;;;;5003038;28;20229;-46
2022/09/28 03:44:40;;;;;;;5.00;1.40;;;14.50;71.80;;;;;;5004470;28;20201;-49
2022/09/28 03:47:09;;;;;;;2.10;1.40;;;14.60;71.90;;;;;;5003000;28;20579;-46
2022/09/28 03:49:35;;;;;;;2.53;1.60;;;14.70;71.70;;;;;;4996638;28;20571;-49
2022/09/28 03:52:00;;;;;;;1.90;1.30;;;14.40;71.90;;;;;;5003449;28;20459;-47
2022/09/28 03:54:26;;;;;;;2.53;1.20;;;14.40;72.60;;;;;;5002003;28;20436;-47
2022/09/28 03:56:51;;;;;;;3.03;1.50;;;14.40;72.80;;;;;;5008035;28;20263;-49
2022/09/28 03:59:17;;;;;;;2.40;1.30;;;14.50;72.70;;;;;;5004097;28;20563;-47
2022/09/28 04:01:43;;;;;;;5.30;1.23;;;14.40;72.90;;;;;;5007206;28;20225;-46
2022/09/28 04:04:12;;;;;;;4.23;1.43;;;14.40;73.30;;;;;;5010571;28;20688;-46
2022/09/28 04:06:38;;;;;;;1.23;0.93;;;14.50;72.50;;;;;;5008371;28;20208;-46
2022/09/28 04:09:04;;;;;;;1.33;0.70;;;14.10;71.70;;;;;;4999666;28;20846;-48
2022/09/28 04:11:30;;;;;;;1.67;0.97;;;14.00;73.00;;;;;;5000117;28;20222;-49
2022/09/28 04:13:55;;;;;;;1.40;0.90;;;14.10;73.40;;;;;;5001265;28;20284;-46
2022/09/28 04:16:21;;;;;;;3.07;1.07;;;14.30;73.20;;;;;;4999489;28;20542;-47
2022/09/28 04:18:47;;;;;;;1.73;0.93;;;14.40;72.80;;;;;;5001692;28;20273;-45
2022/09/28 04:21:15;;;;;;;2.07;0.80;;;14.50;72.50;;;;;;5001251;28;20654;-46
2022/09/28 04:23:41;;;;;;;1.83;1.10;;;14.40;72.80;;;;;;4996315;28;20476;-48
2022/09/28 04:26:24;;;;;;;2.70;1.07;;;14.50;72.10;;;;;;5002333;28;21252;-47
2022/09/28 04:31:43;;;;;;;1.77;0.90;;;14.70;71.10;;;;;;5005554;28;20447;-46
2022/09/28 04:34:09;;;;;;;1.20;0.83;;;14.70;71.00;;;;;;4995195;28;20809;-46
2022/09/28 04:36:34;;;;;;;2.33;1.00;;;14.80;70.70;;;;;;5000340;28;20451;-48
2022/09/28 04:39:00;;;;;;;4.43;1.27;;;14.90;70.20;;;;;;5000170;28;20451;-46
2022/09/28 04:41:26;;;;;;;2.30;0.90;;;15.10;69.80;;;;;;5008473;28;20230;-46
2022/09/28 04:43:51;;;;;;;2.53;1.43;;;15.20;69.40;;;;;;5003545;28;20194;-48
2022/09/28 04:46:18;;;;;;;2.30;1.00;;;15.20;69.00;;;;;;4997423;28;20217;-49
2022/09/28 04:48:44;;;;;;;5.30;1.23;;;15.40;68.70;;;;;;5007419;28;20194;-47
2022/09/28 04:51:09;;;;;;;2.03;1.27;;;15.30;68.60;;;;;;5010637;28;20925;-46
2022/09/28 04:53:35;;;;;;;1.77;1.10;;;15.40;68.50;;;;;;5011526;28;20198;-46
2022/09/28 04:56:02;;;;;;;1.77;1.03;;;15.40;68.20;;;;;;5013279;28;20673;-49
2022/09/28 04:58:28;;;;;;;4.53;1.30;;;15.40;68.50;;;;;;5014553;28;20677;-47
2022/09/28 05:01:00;;;;;;;2.50;1.00;;;15.30;68.50;;;;;;5012645;28;20473;-51
2022/09/28 05:03:25;;;;;;;2.03;0.90;;;15.20;69.20;;;;;;5011326;28;21015;-47
2022/09/28 05:05:51;;;;;;;2.10;0.87;;;15.20;69.20;;;;;;5010934;28;20448;-47
2022/09/28 05:08:17;;;;;;;1.10;0.90;;;15.20;69.70;;;;;;5003457;28;20278;-49
2022/09/28 05:10:43;;;;;;;8.40;1.57;;;15.30;69.00;;;;;;5009452;28;20205;-47
2022/09/28 05:13:10;;;;;;;3.20;1.10;;;15.30;69.00;;;;;;5002096;28;20222;-47
2022/09/28 05:15:37;;;;;;;2.80;1.13;;;15.30;69.30;;;;;;5011230;28;20444;-47
2022/09/28 05:18:03;;;;;;;2.57;1.03;;;15.40;69.50;;;;;;5010743;28;20436;-46
2022/09/28 05:20:28;;;;;;;2.57;1.10;;;15.50;69.40;;;;;;5003151;28;20459;-46
2022/09/28 05:22:54;;;;;;;1.70;0.90;;;15.60;68.90;;;;;;5006564;28;20230;-48
2022/09/28 05:25:20;;;;;;;1.20;0.90;;;15.70;68.20;;;;;;4999607;28;20202;-47
2022/09/28 05:30:18;;;;;;;2.00;1.10;;;15.80;67.20;;;;;;5041584;28;20266;-50
2022/09/28 05:32:43;;;;;;;4.53;1.20;;;15.80;66.90;;;;;;5043314;28;20535;-47
2022/09/28 05:35:10;;;;;;;0.90;0.90;;;15.70;66.80;;;;;;5045964;28;20185;-47
2022/09/28 05:37:40;;;;;;;1.40;1.23;;;15.70;67.10;;;;;;5026481;28;20242;-50
2022/09/28 05:40:06;;;;;;;1.83;1.10;;;15.70;67.30;;;;;;5050569;28;20475;-48
2022/09/28 05:42:31;;;;;;;1.30;1.20;;;15.70;67.40;;;;;;5046362;28;20935;-47
2022/09/28 05:44:57;;;;;;;1.40;1.10;;;15.60;67.40;;;;;;5044857;28;20472;-46
2022/09/28 05:47:24;;;;;;;6.43;1.20;;;15.60;67.60;;;;;;5048827;28;20220;-47
2022/09/28 05:49:51;;;;;;;1.17;0.97;;;15.50;67.80;;;;;;5043429;28;20630;-47
2022/09/28 05:52:17;;;;;;;2.40;1.30;;;15.50;67.60;;;;;;5048102;28;20850;-47
2022/09/28 05:54:42;;;;;;;1.40;1.13;;;15.60;67.60;;;;;;5045083;28;20439;-46
2022/09/28 05:57:08;;;;;;;1.63;1.40;;;15.40;67.40;;;;;;5048644;28;20444;-46
2022/09/28 05:59:36;;;;;;;4.80;2.00;;;15.40;67.70;;;;;;5049424;28;20234;-46
2022/09/28 06:02:03;;;;;;;2.10;1.33;;;15.30;68.00;;;;;;5047184;28;20224;-46
2022/09/28 06:04:28;;;;;;;1.83;1.30;;;15.40;67.80;;;;;;5051804;28;20443;-48
2022/09/28 06:06:54;;;;;;;1.67;0.93;;;15.30;68.10;;;;;;5052569;28;20465;-46
2022/09/28 06:09:22;;;;;;;3.30;1.10;;;15.10;68.50;;;;;;5049446;28;20204;-46
2022/09/28 06:11:48;;;;;;;1.13;1.00;;;15.00;68.70;;;;;;5041498;28;20453;-47
2022/09/28 06:14:14;;;;;;;2.77;1.40;;;15.00;68.80;;;;;;5054965;28;21134;-48
2022/09/28 06:16:39;;;;;;;2.27;2.03;;;15.00;68.80;;;;;;5048608;28;20534;-46
2022/09/28 06:19:06;;;;;;;2.20;1.30;;;15.10;69.00;;;;;;5043192;28;20662;-47
2022/09/28 06:21:32;;;;;;;1.73;1.20;;;15.10;68.90;;;;;;5048455;28;20595;-46
2022/09/28 06:23:57;;;;;;;4.70;1.30;;;15.00;69.10;;;;;;5049225;28;20453;-47
2022/09/28 06:26:23;;;;;;;1.30;1.20;;;14.90;69.40;;;;;;5046058;28;20275;-46
2022/09/28 06:28:49;;;;;;;3.10;1.50;;;14.90;69.70;;;;;;5054591;28;20314;-46
2022/09/28 06:31:14;;;;;;;1.73;1.10;;;14.90;70.00;;;;;;5049899;28;20196;-46
2022/09/28 06:33:41;;;;;;;1.63;1.50;;;14.90;69.80;;;;;;5052313;28;20262;-46
2022/09/28 06:36:08;;;;;;;3.47;1.60;;;15.00;69.60;;;;;;5048757;28;20284;-46
2022/09/28 06:38:34;;;;;;;3.70;1.47;;;15.10;69.50;;;;;;5050153;28;20501;-47
2022/09/28 06:40:59;;;;;;;2.30;1.50;;;15.20;69.10;;;;;;5051606;28;20490;-46
2022/09/28 06:43:26;;;;;;;2.73;1.30;;;15.20;69.10;;;;;;5039223;28;20254;-46
2022/09/28 06:45:52;;;;;;;6.77;1.77;;;15.20;69.10;;;;;;5038654;28;20185;-46
2022/09/28 06:48:18;;;;;;;3.57;1.83;;;15.20;69.30;;;;;;5037377;28;20530;-47
2022/09/28 06:50:44;;;;;;;2.43;1.20;;;15.20;69.30;;;;;;5052777;28;20534;-47
2022/09/28 06:53:14;;;;;;;4.03;1.57;;;15.20;69.40;;;;;;5051279;28;20284;-46
2022/09/28 06:55:42;;;;;;;3.47;1.93;;;15.20;69.40;;;;;;5050490;28;20504;-46
2022/09/28 06:58:13;;;;;;;2.73;1.60;;;15.20;69.70;;;;;;5043084;28;20419;-46
2022/09/28 07:00:39;;;;;;;1.73;1.53;;;15.20;69.50;;;;;;5039138;28;20446;-47
2022/09/28 07:03:20;;;;;;;2.27;1.60;;;15.30;69.60;;;;;;5031758;28;20471;-47
2022/09/28 07:05:48;;;;;;;1.83;1.47;;;15.40;69.40;;;;;;5046369;28;20427;-46
2022/09/28 07:08:14;;;;;;;3.13;1.70;;;15.20;69.40;;;;;;5041463;28;20474;-47
2022/09/28 07:10:45;;;;;;;1.70;1.60;;;15.30;69.70;;;;;;5032534;28;20443;-46
2022/09/28 07:13:12;;;;;;;1.93;1.53;;;15.10;70.20;;;;;;5042054;28;20444;-46
2022/09/28 07:15:38;;;;;;;4.17;1.87;;;15.00;70.60;;;;;;5044487;28;20558;-46
2022/09/28 07:18:06;;;;;;;2.70;1.77;;;15.10;70.60;;;;;;5045678;28;20439;-46
2022/09/28 07:20:33;;;;;;;2.80;1.90;;;15.10;70.90;;;;;;5044815;28;20746;-46
2022/09/28 07:23:01;;;;;;;3.70;2.20;;;15.10;70.80;;;;;;5045996;28;20447;-46
2022/09/28 07:25:31;;;;;;;1.97;1.73;;;15.20;70.70;;;;;;5044980;28;20549;-46
2022/09/28 07:28:01;;;;;;;9.80;9.10;;;15.30;70.50;;;;;;5047349;28;20439;-46
2022/09/28 07:30:31;;;;;;;10.20;3.10;;;15.30;70.60;;;;;;5049043;28;20488;-47
2022/09/28 07:33:01;;;;;;;2.93;2.27;;;15.40;70.50;;;;;;5046026;28;20469;-46
2022/09/28 07:35:27;;;;;;;5.70;2.80;;;15.30;70.60;;;;;;5035571;28;20578;-47
2022/09/28 07:38:02;;;;;;;5.17;3.30;;;15.30;70.90;;;;;;5041771;28;20490;-46
2022/09/28 07:43:12;;;;;;;4.80;2.27;;;15.40;71.20;;;;;;5043257;28;20470;-46
2022/09/28 07:45:39;;;;;;;2.73;2.30;;;15.40;71.50;;;;;;5040591;28;21102;-46
2022/09/28 07:48:04;;;;;;;3.50;2.50;;;15.20;71.40;;;;;;5036752;28;20618;-47
2022/09/28 07:50:31;;;;;;;2.17;1.97;;;15.20;71.20;;;;;;5041409;28;20486;-47
2022/09/28 07:52:57;;;;;;;3.43;2.57;;;15.20;72.10;;;;;;5041478;28;20362;-48
2022/09/28 07:55:23;;;;;;;6.43;2.33;;;15.20;72.00;;;;;;5045373;28;20461;-50
2022/09/28 07:58:00;;;;;;;5.70;2.40;;;15.40;71.90;;;;;;5029486;28;20937;-49
2022/09/28 08:00:30;;;;;;;10.57;2.60;;;15.20;71.00;;;;;;5044027;28;20533;-48
2022/09/28 08:02:58;;;;;;;2.20;2.00;;;15.00;71.70;;;;;;5043875;28;20874;-49
2022/09/28 08:05:24;;;;;;;4.00;2.20;;;15.00;71.10;;;;;;5036098;28;20457;-47
2022/09/28 08:07:51;;;;;;;2.83;1.97;;;15.10;71.00;;;;;;5044393;28;20478;-51
2022/09/28 08:10:18;;;;;;;4.70;2.60;;;15.20;71.40;;;;;;5041557;28;20333;-49
2022/09/28 08:12:46;;;;;;;2.40;2.13;;;15.40;71.50;;;;;;5045406;28;20446;-50
2022/09/28 08:15:11;;;;;;;3.80;2.60;;;15.50;71.10;;;;;;5044149;28;20456;-46
2022/09/28 08:17:37;;;;;;;3.50;2.30;;;15.50;71.00;;;;;;5043853;28;20442;-47
2022/09/28 08:22:47;;;;;;;3.30;2.60;;;15.30;70.80;;;;;;5045698;28;20505;-46
2022/09/28 08:25:13;;;;;;;2.80;2.60;;;15.30;71.30;;;;;;5038051;28;20440;-47
2022/09/28 08:27:38;;;;;;;3.33;2.60;;;15.30;71.80;;;;;;5041042;28;20231;-50
2022/09/28 08:30:04;;;;;;;3.90;3.07;;;15.50;71.30;;;;;;5045720;28;20232;-48
2022/09/28 08:32:31;;;;;;;3.27;2.53;;;15.70;70.70;;;;;;5039101;28;20660;-47
2022/09/28 08:34:57;;;;;;;6.43;3.17;;;15.60;70.60;;;;;;5037990;28;20439;-49
2022/09/28 08:37:22;;;;;;;2.47;2.20;;;15.60;71.30;;;;;;5043361;28;20450;-47
2022/09/28 08:39:48;;;;;;;3.63;2.77;;;15.60;69.20;;;;;;5042185;28;20194;-49
2022/09/28 08:42:30;;;;;;;2.53;2.33;;;15.30;69.60;;;;;;5041644;28;20228;-46
2022/09/28 08:45:06;;;;;;;5.40;2.37;;;15.20;69.60;;;;;;5046348;28;20192;-50
2022/09/28 08:50:57;;;;;;;4.40;2.37;;;15.30;71.30;;;;;;5046311;28;20461;-48
2022/09/28 08:53:43;;;;;;;4.00;2.73;;;15.30;68.50;;;;;;5043215;28;20489;-51
2022/09/28 08:56:30;;;;;;;2.47;2.10;;;15.30;70.00;;;;;;5033065;28;20538;-49
2022/09/28 08:59:03;;;;;;;7.40;3.47;;;15.20;67.40;;;;;;5047585;28;20459;-47
2022/09/28 09:01:37;;;;;;;3.97;2.30;;;15.00;68.20;;;;;;5042323;28;20502;-47
2022/09/28 09:04:05;;;;;;;5.40;2.23;;;14.90;67.90;;;;;;5036648;28;20439;-50
2022/09/28 09:06:34;;;;;;;4.13;2.80;;;15.10;69.70;;;;;;5034340;28;20436;-47
2022/09/28 09:09:12;;;;;;;4.50;2.73;;;15.40;69.70;;;;;;5040276;28;20439;-47
2022/09/28 09:12:08;;;;;;;2.80;2.50;;;15.60;69.00;;;;;;5037019;28;20438;-47
2022/09/28 09:15:11;;;;;;;5.13;2.13;;;15.90;67.30;;;;;;5043583;28;20478;-48
2022/09/28 09:18:02;;;;;;;2.60;2.30;;;16.10;65.90;;;;;;5044652;28;20450;-51
2022/09/28 09:21:01;;;;;;;4.33;2.30;;;16.10;64.90;;;;;;5044486;28;20453;-48
2022/09/28 09:23:33;;;;;;;7.60;2.40;;;16.30;64.70;;;;;;5033707;28;20536;-48
2022/09/28 09:26:24;;;;;;;3.83;1.83;;;16.20;64.10;;;;;;5033811;28;20450;-47
2022/09/28 09:29:01;;;;;;;4.37;2.40;;;16.30;64.30;;;;;;5029760;28;20844;-48
2022/09/28 09:31:56;;;;;;;4.30;2.60;;;16.40;63.80;;;;;;5043807;28;21060;-47
2022/09/28 09:34:40;;;;;;;4.10;2.07;;;16.40;63.10;;;;;;5041695;28;20518;-47
2022/09/28 09:37:24;;;;;;;2.90;2.30;;;16.60;63.30;;;;;;5042350;28;20543;-47
2022/09/28 09:40:02;;;;;;;2.53;1.90;;;16.60;62.80;;;;;;5050912;28;20451;-48
2022/09/28 09:43:01;;;;;;;3.00;2.53;;;16.30;60.10;;;;;;5040661;28;20548;-46
2022/09/28 09:45:57;;;;;;;4.70;2.20;;;16.20;60.60;;;;;;5040473;28;20929;-47
2022/09/28 09:48:35;;;;;;;3.17;2.10;;;16.10;60.70;;;;;;5043317;28;20454;-47
2022/09/28 09:51:20;;;;;;;4.03;1.87;;;16.10;60.50;;;;;;5044597;28;20533;-47
2022/09/28 09:53:58;;;;;;;3.07;2.00;;;16.00;59.30;;;;;;5045108;28;20450;-46
2022/09/28 09:56:43;;;;;;;4.63;1.70;;;16.20;60.10;;;;;;5048039;28;20451;-49
2022/09/28 09:59:13;;;;;;;4.03;1.90;;;16.50;59.90;;;;;;5043238;28;20473;-48
2022/09/28 10:01:40;;;;;;;2.93;2.73;;;16.80;59.80;;;;;;5044265;28;20589;-48
2022/09/28 10:04:27;;;;;;;2.17;1.90;;;16.80;58.60;;;;;;5047047;28;20501;-49
2022/09/28 10:07:04;;;;;;;3.97;1.70;;;16.70;58.70;;;;;;5046357;28;20454;-49
2022/09/28 10:09:35;;;;;;;5.23;1.97;;;16.60;58.30;;;;;;5043848;28;20477;-49
2022/09/28 10:12:01;;;;;;;3.00;2.03;;;16.60;58.50;;;;;;5045508;28;20959;-48
2022/09/28 10:14:27;;;;;;;3.03;1.93;;;16.40;58.00;;;;;;5051779;28;20462;-49
2022/09/28 10:16:55;;;;;;;3.13;2.13;;;16.50;58.80;;;;;;5050376;28;20470;-48
2022/09/28 10:19:32;;;;;;;5.20;3.40;;;16.60;58.30;;;;;;5046588;28;20471;-48
2022/09/28 10:22:01;;;;;;;2.90;2.10;;;16.70;58.70;;;;;;5045811;28;20490;-49
2022/09/28 10:24:41;;;;;;;2.27;1.70;;;17.00;58.20;;;;;;5046783;28;20443;-49
2022/09/28 10:27:12;;;;;;;2.30;2.03;;;16.90;57.70;;;;;;5047868;28;20497;-51
2022/09/28 10:29:49;;;;;;;3.60;2.17;;;16.80;57.50;;;;;;5044739;28;20811;-48
2022/09/28 10:32:23;;;;;;;4.30;2.20;;;16.80;57.90;;;;;;5042486;28;20961;-46
2022/09/28 10:34:50;;;;;;;2.87;1.90;;;16.50;57.70;;;;;;5046465;28;20436;-47
2022/09/28 10:37:17;;;;;;;3.73;2.53;;;16.40;58.40;;;;;;5044446;28;20664;-47
2022/09/28 10:39:49;;;;;;;2.60;2.00;;;16.50;58.50;;;;;;5045843;28;20846;-48
2022/09/28 10:42:32;;;;;;;3.97;1.97;;;16.60;59.20;;;;;;5045651;28;20482;-47
2022/09/28 10:45:19;;;;;;;2.23;1.93;;;16.70;57.80;;;;;;5043240;28;20458;-47
2022/09/28 10:47:45;;;;;;;3.70;2.20;;;16.60;57.30;;;;;;5045157;28;20448;-49
2022/09/28 10:50:29;;;;;;;2.43;2.03;;;16.60;56.90;;;;;;5033724;28;20446;-47
2022/09/28 10:53:18;;;;;;;4.40;2.10;;;16.70;56.80;;;;;;5048333;28;20727;-47
2022/09/28 10:56:06;;;;;;;2.83;2.13;;;16.60;56.20;;;;;;5042490;28;21275;-47
2022/09/28 10:58:40;;;;;;;2.00;1.70;;;16.60;56.10;;;;;;5041772;28;20443;-47
2022/09/28 11:01:19;;;;;;;4.73;2.23;;;16.60;55.80;;;;;;5042969;28;20999;-47
2022/09/28 11:03:49;;;;;;;4.70;2.17;;;16.70;55.90;;;;;;5041635;28;20438;-47
2022/09/28 11:06:23;;;;;;;4.30;2.33;;;16.70;55.50;;;;;;5041383;28;20444;-47
2022/09/28 11:08:49;;;;;;;3.77;2.10;;;17.00;55.50;;;;;;5049838;28;20441;-47
2022/09/28 11:11:18;;;;;;;4.93;2.30;;;16.90;54.10;;;;;;5048637;28;20467;-48
2022/09/28 11:13:50;;;;;;;1.87;1.77;;;16.80;54.30;;;;;;5048432;28;20442;-47
2022/09/28 11:16:28;;;;;;;1.80;1.70;;;16.90;54.40;;;;;;5049925;28;20825;-46
2022/09/28 11:19:18;;;;;;;6.03;2.17;;;17.00;53.90;;;;;;5048622;28;20576;-48
2022/09/28 11:21:45;;;;;;;1.97;1.87;;;17.10;53.90;;;;;;5032612;28;20491;-47
2022/09/28 11:24:14;;;;;;;2.80;1.60;;;17.40;53.00;;;;;;5039474;28;20577;-49
2022/09/28 11:26:55;;;;;;;3.20;2.10;;;17.40;52.60;;;;;;5049000;28;20451;-47
2022/09/28 11:29:34;;;;;;;1.80;1.70;;;17.50;52.30;;;;;;5048613;28;20506;-47
2022/09/28 11:32:02;;;;;;;2.70;2.00;;;17.70;52.50;;;;;;5028486;28;20541;-47
2022/09/28 11:34:35;;;;;;;2.30;2.10;;;17.60;51.70;;;;;;5049040;28;20537;-47
2022/09/28 11:37:21;;;;;;;2.50;1.90;;;17.50;51.70;;;;;;5047359;28;20497;-47
2022/09/28 11:39:53;;;;;;;4.13;1.93;;;17.40;52.00;;;;;;5043736;28;20483;-50
2022/09/28 11:42:20;;;;;;;2.33;1.50;;;17.30;52.40;;;;;;5047813;28;20503;-47
2022/09/28 11:45:03;;;;;;;5.17;2.10;;;17.10;52.70;;;;;;5045672;28;20504;-47
2022/09/28 11:47:50;;;;;;;2.13;1.80;;;17.10;52.80;;;;;;5039789;28;20192;-50
2022/09/28 11:50:53;;;;;;;3.90;1.93;;;17.00;52.40;;;;;;5041422;28;20439;-48
2022/09/28 11:53:33;;;;;;;4.40;1.67;;;17.10;52.60;;;;;;5045311;28;21018;-47
2022/09/28 11:56:05;;;;;;;2.10;1.33;;;17.10;52.10;;;;;;5045860;28;20462;-46
2022/09/28 11:58:43;;;;;;;2.93;1.93;;;17.10;52.30;;;;;;5049404;28;20454;-50
2022/09/28 12:01:27;;;;;;;6.90;1.70;;;17.60;52.60;;;;;;5047303;28;21020;-50
2022/09/28 12:04:01;;;;;;;2.07;1.80;;;17.50;51.40;;;;;;5047789;28;20458;-50
2022/09/28 12:06:39;;;;;;;2.83;1.50;;;17.60;51.20;;;;;;5038674;28;20443;-51
2022/09/28 12:09:14;;;;;;;1.50;1.40;;;17.40;51.20;;;;;;5027722;28;20448;-50
2022/09/28 12:11:44;;;;;;;4.80;2.00;;;17.60;51.30;;;;;;5038830;28;20462;-48
2022/09/28 12:14:22;;;;;;;2.57;1.60;;;17.70;50.10;;;;;;5045666;28;20428;-47
2022/09/28 12:17:08;;;;;;;1.93;1.50;;;17.90;50.50;;;;;;5041890;28;20431;-50
2022/09/28 12:19:42;;;;;;;4.00;2.07;;;18.00;49.60;;;;;;5046088;28;20546;-49
2022/09/28 12:22:18;;;;;;;2.10;1.63;;;17.80;49.00;;;;;;5041419;28;20611;-51
2022/09/28 12:24:48;;;;;;;6.00;1.50;;;17.90;49.10;;;;;;5043067;28;20442;-50
2022/09/28 12:27:26;;;;;;;2.80;1.30;;;17.80;49.80;;;;;;5041042;28;20480;-48
2022/09/28 12:29:57;;;;;;;3.20;1.53;;;17.80;48.80;;;;;;5045539;28;20472;-51
2022/09/28 12:32:49;;;;;;;5.70;1.57;;;17.90;50.00;;;;;;5049662;28;20946;-48
2022/09/28 12:35:24;;;;;;;1.80;1.57;;;18.10;49.50;;;;;;5042850;28;20489;-50
2022/09/28 12:38:13;;;;;;;1.33;1.23;;;18.10;49.30;;;;;;5048327;28;20456;-47
2022/09/28 12:40:46;;;;;;;4.20;2.00;;;18.20;48.80;;;;;;5048831;28;20868;-46
2022/09/28 12:43:43;;;;;;;3.70;1.37;;;18.10;48.50;;;;;;5027467;28;20863;-47
2022/09/28 12:46:27;;;;;;;2.20;1.50;;;18.40;49.00;;;;;;5040799;28;20484;-46
2022/09/28 12:49:04;;;;;;;2.37;1.73;;;18.50;48.70;;;;;;5029125;28;20450;-49
2022/09/28 12:51:45;;;;;;;2.53;1.47;;;18.60;47.70;;;;;;5043821;28;20439;-47
2022/09/28 12:54:26;;;;;;;4.23;2.77;;;18.40;46.90;;;;;;5044669;28;20493;-48
2022/09/28 12:57:03;;;;;;;3.10;1.70;;;18.30;47.30;;;;;;5041095;28;20530;-50
2022/09/28 12:59:35;;;;;;;2.73;1.13;;;18.40;46.80;;;;;;5046740;28;20473;-49
2022/09/28 13:02:25;;;;;;;1.73;1.10;;;18.40;46.10;;;;;;5043895;28;20528;-49
2022/09/28 13:05:24;;;;;;;5.30;1.63;;;18.00;46.00;;;;;;5041760;28;20538;-49
2022/09/28 13:08:08;;;;;;;1.53;1.40;;;17.80;46.20;;;;;;5047792;28;20454;-49
2022/09/28 13:10:58;;;;;;;2.90;1.27;;;18.00;47.50;;;;;;5040386;28;20958;-50
2022/09/28 13:13:36;;;;;;;5.13;1.40;;;18.10;47.60;;;;;;5048507;28;20500;-48
2022/09/28 13:16:16;;;;;;;2.03;1.20;;;18.10;46.20;;;;;;5050532;28;20851;-47
2022/09/28 13:19:15;;;;;;;2.83;1.50;;;18.30;46.80;;;;;;5046058;28;20483;-50
2022/09/28 13:22:05;;;;;;;3.43;1.40;;;18.20;46.30;;;;;;5051116;28;20628;-50
2022/09/28 13:24:36;;;;;;;3.37;1.23;;;18.10;45.60;;;;;;5050506;28;20937;-46
2022/09/28 13:27:09;;;;;;;2.50;1.10;;;17.90;46.10;;;;;;5048796;28;20478;-46
2022/09/28 13:29:37;;;;;;;2.20;1.40;;;18.00;46.60;;;;;;5044757;28;20513;-47
2022/09/28 13:32:04;;;;;;;4.50;1.70;;;18.00;46.60;;;;;;5049206;28;20850;-49